ブラジリア国際空港の過去48時間の天気

ブラジリア国際空港 (Brasilia Aeroporto )

現在時刻: 10/28 14:06 -03 (10/28 17:06 UTC) 以下の時間は現地時間です。

過去48時間のMETAR気象情報
時間 風向 風速(m/s) 視程 気温(℃) 湿度(%) 気圧(hPa) 天気現象
28 14:00 西北西 3 10km以上 26 65 1014
28 13:00 西北西 2 10km以上 27 58 1015
28 12:00 2 10km以上 23 73 1017
28 11:00 3 10km以上 21 88 1017
28 10:00 2 10km以上 20 88 1018 弱い雷雨
28 09:00 北東 2 10km以上 20 88 1017 弱い雷雨
28 08:00 北東 6 10km以上 20 94 1016 弱い雷雨
28 07:30 北北東 6 8000m 20 94 1016 雷雨
28 07:00 北東 6 10km以上 21 88 1015
28 06:24 東北東 6 10km以上 21 88 1015 周辺で雷 しゅう雨
28 06:00 北東 4 10km以上 21 94 1014 周辺でしゅう雨 周辺で雷
28 05:27 東北東 3 10km以上 22 88 1014 周辺で雷
28 05:00 東北東 4 10km以上 22 88 1013
28 04:00 不定 1 10km以上 22 88 1012
28 03:00 不定 1 10km以上 22 88 1012
28 02:00 南南西 2 10km以上 23 78 1012
28 01:00 北西 2 10km以上 21 88 1013
28 00:00 不定 1 10km以上 23 78 1013
27 23:00 北北西 2 10km以上 24 74 1014
27 22:00 北西 2 10km以上 24 74 1013
27 21:00 西北西 2 10km以上 24 74 1013
27 20:00 西 1 10km以上 24 83 1012
27 19:00 西 2 10km以上 26 70 1011
27 18:00 西南西 2 10km以上 27 62 1010
27 17:00 西 4 10km以上 26 70 1010
SBBR 281700Z 30006KT 9999 SCT030 FEW040TCU BKN100 26/19 Q1014
SBBR 281600Z 29004KT 9999 SCT030 BKN080 27/18 Q1015
SBBR 281500Z 10003KT 9999 SCT020 BKN100 23/18 Q1017
SBBR 281400Z 08006KT 9999 FEW005 BKN020 BKN070 21/19 Q1017 RETS
SBBR 281300Z 19004KT 9999 3000E -TSRA SCT009 BKN020 FEW030CB BKN100 20/18 Q1018
SBBR 281200Z 05003KT 9999 -TSRA BKN006 FEW030CB BKN100 20/18 Q1017
SBBR 281100Z 05012KT 9999 -TSRA BKN007 BKN026 FEW030CB 20/19 Q1016 RERA
SBBR 281030Z 03011KT 8000 TSRA BKN008 BKN027 FEW030CB 20/19 Q1016
SBBR 281000Z 04012KT 9999 TS BKN008 BKN024 FEW030CB BKN100 21/19 Q1015 RESHRA
SBBR 280924Z 06012KT 9999 3000E SHRA VCTS BKN008 SCT017 FEW030CB 21/19 Q1015
SBBR 280900Z 05008KT 9999 VCSH VCTS BKN008 SCT020 FEW030CB 21/20 Q1014
SBBR 280827Z 07006KT 9999 VCTS FEW009 BKN012 FEW030CB 22/20 Q1014
SBBR 280800Z 07007KT 9999 FEW013 BKN015 FEW025TCU 22/20 Q1013
SBBR 280700Z VRB02KT 9999 SCT017 FEW025TCU BKN080 22/20 Q1012
SBBR 280600Z VRB02KT 9999 FEW020 SCT070 22/20 Q1012
SBBR 280500Z 20004KT 9999 FEW040 SCT070 23/19 Q1012
SBBR 280400Z 32003KT 220V350 9999 FEW040 SCT070 21/19 Q1013
SBBR 280300Z VRB01KT 9999 FEW040 SCT070 23/19 Q1013
SBBR 280200Z 34003KT 9999 FEW040 SCT080 24/19 Q1014
SBBR 280100Z 31003KT 270V340 9999 FEW040 BKN080 24/19 Q1013
SBBR 280000Z 29003KT 9999 FEW040 BKN100 24/19 Q1013
SBBR 272300Z 27002KT 9999 FEW040 BKN100 24/21 Q1012
SBBR 272200Z 26003KT 9999 FEW040 FEW050TCU BKN100 26/20 Q1011
SBBR 272100Z 24004KT 9999 SCT040 FEW050TCU BKN100 27/19 Q1010
SBBR 272000Z 26007KT 9999 BKN040 FEW045TCU BKN100 26/20 Q1010